Time;durP1;ratioP1;P1;durP2;ratioP2;P2;SDS_P1;SDS_P2;PMS_P1;PMS_P2;Temp;Humidity;BMP_temperature;BMP_pressure;BME280_temperature;BME280_humidity;BME280_pressure;Samples;Min_cycle;Max_cycle;Signal;HPM_P1;HPM_P2
2022/04/15 04:00:20;;;;;;;6.78;6.07;;;9.00;99.90;;;;;;5954293;23;20602;-66
2022/04/15 04:02:48;;;;;;;10.57;7.30;;;9.00;99.90;;;;;;4939998;28;20666;-68
2022/04/15 04:05:15;;;;;;;6.82;6.10;;;8.90;99.90;;;;;;4937105;29;20586;-68
2022/04/15 04:07:41;;;;;;;6.85;5.95;;;8.90;99.90;;;;;;4936839;29;20217;-67
2022/04/15 04:10:10;;;;;;;9.43;7.50;;;9.00;99.90;;;;;;4936227;29;20651;-67
2022/04/15 04:12:37;;;;;;;13.50;7.38;;;8.90;99.90;;;;;;4917919;29;20290;-67
2022/04/15 04:15:06;;;;;;;10.43;6.05;;;8.90;99.90;;;;;;4917086;29;20547;-67
2022/04/15 04:17:34;;;;;;;12.50;7.85;;;8.90;99.90;;;;;;4917875;29;20226;-67
2022/04/15 04:20:02;;;;;;;10.70;7.43;;;8.90;99.90;;;;;;4910810;29;20266;-67
2022/04/15 04:22:29;;;;;;;8.77;6.35;;;8.90;99.90;;;;;;4898755;29;20728;-67
2022/04/15 04:24:57;;;;;;;7.13;6.05;;;8.90;99.90;;;;;;4914537;29;20202;-67
2022/04/15 04:27:24;;;;;;;8.45;7.18;;;8.90;99.90;;;;;;4960745;23;20336;-71
2022/04/15 04:29:51;;;;;;;8.10;7.28;;;8.90;99.90;;;;;;4955029;28;20296;-70
2022/04/15 04:32:18;;;;;;;6.97;6.32;;;8.80;99.90;;;;;;4968235;28;20205;-70
2022/04/15 04:34:47;;;;;;;7.88;7.07;;;8.90;99.90;;;;;;4965675;28;20205;-70
2022/04/15 04:37:14;;;;;;;7.47;6.70;;;8.90;99.90;;;;;;4966352;28;20224;-70
2022/04/15 04:39:41;;;;;;;11.80;8.38;;;8.90;99.90;;;;;;4965464;28;20638;-70
2022/04/15 04:42:08;;;;;;;10.60;7.35;;;8.90;99.90;;;;;;4953120;28;20210;-70
2022/04/15 04:44:36;;;;;;;9.88;7.68;;;8.90;99.90;;;;;;4942422;28;20204;-68
2022/04/15 04:47:03;;;;;;;7.85;7.13;;;8.90;99.90;;;;;;4951754;28;20655;-69
2022/04/15 04:49:30;;;;;;;8.20;7.22;;;8.90;99.90;;;;;;4968652;28;20221;-71
2022/04/15 04:51:58;;;;;;;7.43;6.05;;;8.90;99.90;;;;;;4951705;28;20496;-70
2022/04/15 04:54:25;;;;;;;7.22;6.53;;;8.80;99.90;;;;;;4940892;29;20198;-69
2022/04/15 04:56:52;;;;;;;7.10;6.40;;;8.80;99.90;;;;;;4960745;28;20231;-71
2022/04/15 04:59:22;;;;;;;8.73;7.85;;;8.80;99.90;;;;;;4971268;28;20219;-67
2022/04/15 05:01:48;;;;;;;8.93;7.75;;;8.80;99.90;;;;;;4960949;28;20209;-68
2022/04/15 05:04:15;;;;;;;10.30;8.13;;;8.80;99.90;;;;;;4946540;28;20678;-69
2022/04/15 05:06:42;;;;;;;9.18;7.25;;;8.80;99.90;;;;;;4956963;28;20228;-70
2022/04/15 05:09:10;;;;;;;8.38;7.15;;;8.80;99.90;;;;;;4952051;28;20249;-69
2022/04/15 05:11:37;;;;;;;7.75;7.00;;;8.80;99.90;;;;;;4950823;28;20197;-70
2022/04/15 05:14:04;;;;;;;8.77;7.53;;;8.80;99.90;;;;;;4954239;28;20210;-69
2022/04/15 05:16:31;;;;;;;9.98;7.68;;;8.90;99.90;;;;;;4962525;28;20284;-69
2022/04/15 05:18:57;;;;;;;10.50;8.20;;;8.90;99.90;;;;;;4969154;28;20197;-70
2022/04/15 05:21:24;;;;;;;11.80;7.70;;;8.90;99.90;;;;;;4959479;28;20227;-70
2022/04/15 05:23:51;;;;;;;9.40;7.63;;;8.90;99.90;;;;;;4936669;28;20236;-69
2022/04/15 05:26:20;;;;;;;9.82;7.28;;;8.90;99.90;;;;;;4945655;28;20548;-70
2022/04/15 05:28:47;;;;;;;12.77;8.45;;;8.90;99.90;;;;;;4955671;28;20795;-70
2022/04/15 05:31:13;;;;;;;11.25;8.40;;;8.90;99.90;;;;;;4954973;28;20304;-69
2022/04/15 05:33:40;;;;;;;9.50;8.55;;;9.00;99.90;;;;;;4965863;28;20229;-70
2022/04/15 05:36:07;;;;;;;9.60;8.65;;;9.00;99.90;;;;;;4956056;28;20213;-69
2022/04/15 05:38:34;;;;;;;9.20;8.27;;;9.00;99.90;;;;;;4948148;28;20226;-69
2022/04/15 05:41:01;;;;;;;9.20;8.30;;;9.00;99.90;;;;;;4936125;28;20214;-69
2022/04/15 05:43:29;;;;;;;11.15;7.47;;;9.00;99.90;;;;;;4968706;28;20774;-68
2022/04/15 05:45:55;;;;;;;9.25;8.27;;;9.10;99.90;;;;;;4954056;28;20205;-67
2022/04/15 05:48:22;;;;;;;11.23;9.02;;;9.10;99.90;;;;;;4960899;28;20233;-68
2022/04/15 05:50:49;;;;;;;13.40;8.45;;;9.10;99.90;;;;;;4934640;29;20229;-69
2022/04/15 05:53:16;;;;;;;12.15;10.27;;;9.10;99.90;;;;;;4966915;28;20278;-69
2022/04/15 05:55:42;;;;;;;13.35;9.23;;;9.10;99.90;;;;;;4953363;28;20811;-69
2022/04/15 05:58:10;;;;;;;12.35;9.85;;;9.10;99.90;;;;;;4949440;28;20227;-69
2022/04/15 06:00:38;;;;;;;10.27;8.32;;;9.10;99.90;;;;;;4953276;28;20233;-69
2022/04/15 06:03:07;;;;;;;16.00;10.93;;;9.10;99.90;;;;;;4957622;28;20205;-69
2022/04/15 06:05:34;;;;;;;17.23;10.95;;;9.10;99.90;;;;;;4954631;28;20206;-69
2022/04/15 06:08:00;;;;;;;15.65;10.50;;;9.20;99.90;;;;;;4949014;28;20237;-69
2022/04/15 06:10:27;;;;;;;14.98;10.68;;;9.20;99.90;;;;;;4956943;28;20213;-68
2022/04/15 06:13:02;;;;;;;17.77;12.43;;;9.20;99.90;;;;;;4956122;28;20206;-69
2022/04/15 06:15:31;;;;;;;20.88;11.75;;;9.20;99.90;;;;;;4963632;28;20744;-69
2022/04/15 06:17:59;;;;;;;18.77;14.30;;;9.20;99.90;;;;;;4952060;28;20229;-69
2022/04/15 06:20:26;;;;;;;19.20;12.43;;;9.20;99.90;;;;;;4953916;28;20291;-68
2022/04/15 06:22:53;;;;;;;21.65;13.20;;;9.20;99.90;;;;;;4956175;28;20658;-69
2022/04/15 06:25:19;;;;;;;18.42;13.20;;;9.30;99.90;;;;;;4960784;28;20197;-69
2022/04/15 06:27:46;;;;;;;19.00;12.23;;;9.30;99.90;;;;;;4956043;28;20599;-70
2022/04/15 06:30:13;;;;;;;24.60;13.60;;;9.40;99.90;;;;;;4950360;28;20727;-69
2022/04/15 06:32:40;;;;;;;16.70;12.48;;;9.40;99.90;;;;;;4935143;29;20281;-68
2022/04/15 06:35:09;;;;;;;19.98;12.65;;;9.40;99.90;;;;;;4942324;28;20208;-68
2022/04/15 06:37:36;;;;;;;22.05;13.27;;;9.60;99.90;;;;;;4953331;28;20225;-67
2022/04/15 06:40:03;;;;;;;19.35;13.48;;;9.70;99.90;;;;;;4940337;28;20215;-67
2022/04/15 06:42:30;;;;;;;23.90;14.55;;;9.80;99.90;;;;;;4953491;28;20220;-69
2022/04/15 06:44:58;;;;;;;22.75;14.23;;;9.80;99.90;;;;;;4955031;28;20205;-67
2022/04/15 06:47:25;;;;;;;21.75;14.77;;;9.80;99.90;;;;;;4938967;28;20234;-67
2022/04/15 06:49:52;;;;;;;22.60;14.35;;;9.70;99.90;;;;;;4952147;28;20319;-68
2022/04/15 06:52:19;;;;;;;22.00;14.60;;;9.60;99.90;;;;;;4972649;28;20216;-68
2022/04/15 06:54:46;;;;;;;26.75;15.30;;;9.70;99.90;;;;;;4956002;28;20356;-68
2022/04/15 06:57:13;;;;;;;23.58;14.80;;;9.60;99.90;;;;;;4953364;28;20229;-68
2022/04/15 06:59:40;;;;;;;25.58;16.33;;;9.60;99.90;;;;;;4946754;28;20906;-68
2022/04/15 07:02:07;;;;;;;25.38;15.32;;;9.60;99.90;;;;;;4946131;28;20257;-68
2022/04/15 07:04:34;;;;;;;29.58;16.95;;;9.60;99.90;;;;;;4940202;28;20208;-67
2022/04/15 07:07:01;;;;;;;24.63;15.73;;;9.60;99.90;;;;;;4964263;28;20743;-68
2022/04/15 07:09:29;;;;;;;26.23;15.68;;;9.60;99.90;;;;;;4958360;28;20698;-68
2022/04/15 07:11:56;;;;;;;34.28;17.02;;;9.60;99.90;;;;;;4971645;28;20276;-68
2022/04/15 07:14:23;;;;;;;26.25;15.77;;;9.70;99.90;;;;;;4969452;28;20224;-68
2022/04/15 07:16:49;;;;;;;30.63;17.23;;;9.60;99.90;;;;;;4972022;28;20279;-67
2022/04/15 07:19:16;;;;;;;26.95;16.80;;;9.60;99.90;;;;;;4948397;28;20206;-68
2022/04/15 07:21:43;;;;;;;30.67;17.35;;;9.70;99.90;;;;;;4952635;28;20242;-68
2022/04/15 07:24:10;;;;;;;29.20;17.95;;;9.80;99.90;;;;;;4957538;28;20216;-68
2022/04/15 07:26:39;;;;;;;27.63;15.90;;;9.80;99.90;;;;;;4952382;28;20237;-68
2022/04/15 07:29:06;;;;;;;34.65;20.67;;;9.80;99.90;;;;;;4957003;28;20224;-68
2022/04/15 07:31:34;;;;;;;35.13;17.58;;;9.80;99.90;;;;;;4970904;28;20585;-68
2022/04/15 07:34:01;;;;;;;26.10;17.45;;;9.90;99.90;;;;;;4966885;28;20211;-67
2022/04/15 07:36:43;;;;;;;28.80;17.65;;;10.00;99.90;;;;;;4959018;28;20205;-67
2022/04/15 07:39:14;;;;;;;25.75;17.20;;;10.00;99.90;;;;;;4947737;28;20207;-68
2022/04/15 07:41:45;;;;;;;27.48;18.35;;;10.10;99.90;;;;;;4951504;28;20209;-68
2022/04/15 07:44:12;;;;;;;27.65;18.02;;;10.10;99.90;;;;;;4952443;28;20209;-67
2022/04/15 07:46:40;;;;;;;32.75;19.60;;;10.10;99.90;;;;;;4952053;28;20240;-68
2022/04/15 07:49:07;;;;;;;32.28;18.08;;;10.10;99.90;;;;;;4940161;28;20216;-68
2022/04/15 07:51:35;;;;;;;29.40;16.48;;;10.00;99.90;;;;;;4951881;28;20209;-68
2022/04/15 07:54:02;;;;;;;36.00;19.55;;;10.10;99.90;;;;;;4956016;28;20227;-68
2022/04/15 07:56:29;;;;;;;34.30;20.00;;;10.10;99.90;;;;;;4951562;28;20218;-67
2022/04/15 07:58:57;;;;;;;26.45;17.80;;;10.00;99.90;;;;;;4947402;28;20198;-68
2022/04/15 08:01:27;;;;;;;30.98;18.65;;;9.90;99.90;;;;;;4951001;28;20209;-69
2022/04/15 08:03:54;;;;;;;30.35;19.80;;;9.90;99.90;;;;;;4952010;28;20642;-67
2022/04/15 08:06:21;;;;;;;30.40;19.80;;;9.90;99.90;;;;;;4972124;28;20263;-66
2022/04/15 08:08:47;;;;;;;29.02;19.65;;;9.90;99.90;;;;;;4958346;28;20726;-66
2022/04/15 08:11:14;;;;;;;38.15;21.45;;;9.80;99.90;;;;;;4946300;28;20281;-67
2022/04/15 08:13:41;;;;;;;35.03;20.20;;;9.80;99.90;;;;;;4958924;28;20276;-67
2022/04/15 08:16:09;;;;;;;36.45;19.42;;;9.80;99.90;;;;;;4951942;28;20498;-67
2022/04/15 08:18:36;;;;;;;31.58;19.77;;;9.90;99.90;;;;;;4952019;28;20208;-67
2022/04/15 08:21:02;;;;;;;35.75;20.38;;;9.90;99.90;;;;;;4967786;28;20212;-67
2022/04/15 08:23:29;;;;;;;33.35;20.20;;;9.90;99.90;;;;;;4961944;28;20287;-68
2022/04/15 08:25:56;;;;;;;30.35;18.92;;;10.00;99.90;;;;;;4963128;28;20204;-67
2022/04/15 08:28:22;;;;;;;28.05;17.70;;;10.00;99.90;;;;;;4963756;28;20241;-67
2022/04/15 08:30:49;;;;;;;30.20;17.98;;;10.10;99.90;;;;;;4948842;28;20296;-67
2022/04/15 08:33:17;;;;;;;30.23;18.15;;;10.20;99.90;;;;;;4951848;28;20209;-67
2022/04/15 08:35:44;;;;;;;28.00;17.40;;;10.20;99.90;;;;;;4964269;28;20281;-67
2022/04/15 08:38:11;;;;;;;22.35;15.13;;;10.30;99.90;;;;;;4969652;28;20283;-67
2022/04/15 08:40:43;;;;;;;26.13;16.67;;;10.30;99.90;;;;;;4952771;28;20208;-68
2022/04/15 08:43:11;;;;;;;20.40;14.23;;;10.40;99.90;;;;;;4954069;28;20201;-67
2022/04/15 08:45:41;;;;;;;24.33;14.52;;;10.40;99.90;;;;;;4947487;28;20312;-68
2022/04/15 08:48:08;;;;;;;25.10;14.88;;;10.40;99.90;;;;;;4964326;28;20311;-67
2022/04/15 08:50:36;;;;;;;21.88;14.38;;;10.40;99.90;;;;;;4968290;28;20622;-68
2022/04/15 08:53:04;;;;;;;19.05;13.68;;;10.40;99.90;;;;;;4953663;28;20559;-69
2022/04/15 08:55:32;;;;;;;20.73;13.90;;;10.40;99.90;;;;;;4954423;28;20213;-69
2022/04/15 08:57:59;;;;;;;19.27;12.20;;;10.40;99.90;;;;;;4963070;28;20240;-69
2022/04/15 09:00:27;;;;;;;20.52;13.00;;;10.40;99.90;;;;;;4949674;28;20210;-68
2022/04/15 09:02:55;;;;;;;20.63;14.55;;;10.40;99.90;;;;;;4967789;28;20228;-69
2022/04/15 09:05:24;;;;;;;24.20;14.73;;;10.50;99.90;;;;;;4957862;28;20263;-68
2022/04/15 09:08:04;;;;;;;25.48;15.20;;;10.50;99.90;;;;;;4959564;28;20235;-68
2022/04/15 09:10:33;;;;;;;20.83;13.10;;;10.50;99.90;;;;;;4964607;28;20217;-68
2022/04/15 09:13:00;;;;;;;19.92;12.20;;;10.50;99.90;;;;;;4951221;28;20701;-68
2022/04/15 09:15:26;;;;;;;18.60;11.18;;;10.40;99.90;;;;;;4953992;28;20279;-69
2022/04/15 09:17:54;;;;;;;18.60;12.15;;;10.40;99.90;;;;;;4960246;28;20225;-68
2022/04/15 09:20:22;;;;;;;23.08;13.40;;;10.40;99.90;;;;;;4950829;28;20271;-68
2022/04/15 09:22:55;;;;;;;18.38;11.20;;;10.50;99.90;;;;;;4954420;28;20202;-68
2022/04/15 09:25:26;;;;;;;18.25;11.40;;;10.50;99.90;;;;;;4953891;28;20292;-68
2022/04/15 09:27:55;;;;;;;18.50;11.50;;;10.50;99.90;;;;;;4954555;28;20336;-68
2022/04/15 09:30:33;;;;;;;16.95;12.00;;;10.40;99.90;;;;;;4933853;29;20233;-68
2022/04/15 09:33:01;;;;;;;19.10;11.88;;;10.40;99.90;;;;;;4935365;29;20301;-68
2022/04/15 09:35:28;;;;;;;17.00;10.80;;;10.40;99.90;;;;;;4935336;29;20237;-68
2022/04/15 09:37:59;;;;;;;18.17;11.30;;;10.50;99.90;;;;;;4935418;29;20285;-69
2022/04/15 09:40:27;;;;;;;20.40;12.43;;;10.50;99.90;;;;;;4934800;29;20217;-69
2022/04/15 09:42:54;;;;;;;18.73;11.52;;;10.60;99.90;;;;;;4935179;29;20649;-69
2022/04/15 09:45:23;;;;;;;17.88;12.70;;;10.70;99.90;;;;;;4934343;29;20257;-69
2022/04/15 09:47:53;;;;;;;19.02;12.82;;;10.80;99.90;;;;;;4935189;29;20265;-67
2022/04/15 09:50:26;;;;;;;17.20;11.50;;;10.90;99.90;;;;;;4934152;29;20240;-68
2022/04/15 09:52:54;;;;;;;18.30;12.05;;;10.80;99.90;;;;;;4934747;29;20217;-68
2022/04/15 09:55:24;;;;;;;16.67;12.48;;;10.80;99.90;;;;;;4934884;29;20235;-69
2022/04/15 09:57:51;;;;;;;20.08;12.77;;;10.70;99.90;;;;;;4947450;28;20688;-69
2022/04/15 10:00:19;;;;;;;16.92;12.13;;;10.70;99.90;;;;;;4952227;28;20267;-69
2022/04/15 10:02:47;;;;;;;21.67;12.80;;;10.70;99.90;;;;;;4953737;28;20209;-68
2022/04/15 10:05:15;;;;;;;23.27;14.70;;;10.70;99.90;;;;;;4953862;28;20209;-68
2022/04/15 10:07:43;;;;;;;23.02;13.93;;;10.80;99.90;;;;;;4954319;28;20341;-67
2022/04/15 10:10:11;;;;;;;18.05;13.02;;;10.80;99.90;;;;;;4937254;28;20243;-68
2022/04/15 10:12:40;;;;;;;25.05;14.38;;;10.90;99.90;;;;;;4934281;29;20210;-68
2022/04/15 10:15:09;;;;;;;18.25;12.27;;;11.00;99.90;;;;;;4951540;28;20220;-69
2022/04/15 10:17:38;;;;;;;17.23;11.30;;;11.00;99.90;;;;;;4965093;28;20232;-69
2022/04/15 10:20:05;;;;;;;17.67;11.90;;;10.90;99.90;;;;;;4955460;28;20288;-69
2022/04/15 10:22:33;;;;;;;14.88;11.13;;;10.90;99.90;;;;;;4953438;28;20695;-69
2022/04/15 10:25:00;;;;;;;13.85;10.73;;;10.90;99.90;;;;;;4953698;28;20589;-68
2022/04/15 10:27:30;;;;;;;15.82;11.07;;;10.90;99.90;;;;;;4953334;28;20244;-69
2022/04/15 10:30:04;;;;;;;19.13;12.48;;;10.90;99.90;;;;;;4948110;28;20225;-68
2022/04/15 10:32:47;;;;;;;20.27;12.27;;;10.80;99.90;;;;;;4953483;28;20205;-68
2022/04/15 10:35:20;;;;;;;21.70;12.23;;;10.70;99.90;;;;;;4953441;28;20237;-68
2022/04/15 10:37:47;;;;;;;19.23;12.55;;;10.70;99.90;;;;;;4953340;28;20229;-68
2022/04/15 10:40:26;;;;;;;19.98;12.73;;;10.60;99.90;;;;;;4951845;28;20201;-68
2022/04/15 10:42:52;;;;;;;15.52;12.85;;;10.60;99.90;;;;;;4953112;28;20217;-69
2022/04/15 10:45:28;;;;;;;17.70;12.95;;;10.60;99.90;;;;;;4952711;28;20209;-68
2022/04/15 10:47:58;;;;;;;22.15;12.32;;;10.60;99.90;;;;;;4953211;28;20725;-69
2022/04/15 10:50:27;;;;;;;19.42;13.73;;;10.60;99.90;;;;;;4934296;28;20313;-69
2022/04/15 10:53:14;;;;;;;23.20;14.13;;;10.50;99.90;;;;;;4934156;29;20210;-68
2022/04/15 10:55:43;;;;;;;19.23;13.85;;;10.50;99.90;;;;;;4933807;29;20357;-68
2022/04/15 10:58:14;;;;;;;17.77;13.10;;;10.60;99.90;;;;;;4934185;29;20261;-68
2022/04/15 11:03:29;;;;;;;20.10;13.98;;;10.90;99.90;;;;;;4934057;29;20280;-68
2022/04/15 11:05:57;;;;;;;17.80;12.55;;;11.00;99.90;;;;;;4933924;29;20679;-68
2022/04/15 11:08:26;;;;;;;17.42;12.02;;;11.00;99.90;;;;;;4933914;29;20761;-68
2022/04/15 11:11:03;;;;;;;17.20;12.82;;;11.00;99.90;;;;;;4932472;29;20425;-68
2022/04/15 11:13:59;;;;;;;18.35;12.88;;;11.00;99.90;;;;;;4933963;29;20221;-69
2022/04/15 11:16:42;;;;;;;18.98;14.00;;;11.00;99.90;;;;;;4932972;29;20293;-69
2022/04/15 11:19:11;;;;;;;18.17;12.77;;;11.10;99.90;;;;;;4940605;28;20670;-69
2022/04/15 11:21:40;;;;;;;17.60;13.02;;;11.10;99.90;;;;;;4959420;28;20285;-69
2022/04/15 11:24:09;;;;;;;19.20;12.52;;;11.10;99.90;;;;;;4952686;28;20212;-67
2022/04/15 11:26:38;;;;;;;22.05;12.70;;;11.00;99.90;;;;;;4952510;28;20594;-68
2022/04/15 11:29:06;;;;;;;16.25;11.85;;;11.00;99.90;;;;;;4951706;28;20288;-67
2022/04/15 11:31:36;;;;;;;18.25;13.23;;;10.90;99.90;;;;;;4951298;28;20257;-68
2022/04/15 11:34:07;;;;;;;17.50;12.73;;;10.90;99.90;;;;;;4952524;28;20623;-69
2022/04/15 11:36:35;;;;;;;17.70;13.05;;;10.80;99.90;;;;;;4952673;28;20229;-68
2022/04/15 11:39:05;;;;;;;20.77;14.80;;;10.80;99.90;;;;;;4946383;28;20209;-68
2022/04/15 11:41:33;;;;;;;17.48;12.10;;;10.80;99.90;;;;;;4932439;29;20683;-69
2022/04/15 11:44:02;;;;;;;20.20;12.93;;;10.80;99.90;;;;;;4933012;29;20210;-67
2022/04/15 11:46:40;;;;;;;22.27;13.55;;;10.80;99.90;;;;;;4932752;29;20213;-67
2022/04/15 11:49:13;;;;;;;17.17;11.90;;;10.70;99.90;;;;;;4939190;29;20212;-67
2022/04/15 11:51:40;;;;;;;18.98;11.85;;;10.70;99.90;;;;;;4951380;28;20549;-68
2022/04/15 11:54:07;;;;;;;20.70;12.57;;;10.60;99.90;;;;;;4952257;28;20212;-67
2022/04/15 11:56:36;;;;;;;15.23;12.07;;;10.70;99.90;;;;;;4946651;28;20705;-68
2022/04/15 11:59:04;;;;;;;17.73;12.27;;;10.70;99.90;;;;;;4951180;28;20217;-68
2022/04/15 12:01:32;;;;;;;19.60;12.80;;;10.70;99.90;;;;;;4950579;28;20543;-67
2022/04/15 12:04:00;;;;;;;17.15;10.38;;;10.70;99.90;;;;;;4952209;28;20721;-68
2022/04/15 12:06:27;;;;;;;16.42;10.90;;;10.70;99.90;;;;;;4952420;28;20296;-67
2022/04/15 12:08:56;;;;;;;14.07;10.13;;;10.60;99.90;;;;;;4937717;29;20205;-67
2022/04/15 12:11:24;;;;;;;17.10;11.27;;;10.70;99.90;;;;;;4953669;28;20221;-68
2022/04/15 12:13:59;;;;;;;16.75;12.45;;;10.70;99.90;;;;;;4946608;28;20206;-69
2022/04/15 12:16:26;;;;;;;15.05;11.07;;;10.70;99.90;;;;;;4966116;28;20211;-68
2022/04/15 12:18:53;;;;;;;15.70;12.07;;;10.80;99.90;;;;;;4966337;28;20332;-69
2022/04/15 12:21:22;;;;;;;15.48;12.10;;;10.80;99.90;;;;;;4946250;28;20208;-69
2022/04/15 12:24:09;;;;;;;16.98;12.35;;;10.90;99.90;;;;;;4965347;28;20201;-68
2022/04/15 12:26:46;;;;;;;22.10;12.80;;;10.80;99.90;;;;;;4950772;28;20264;-69
2022/04/15 12:32:15;;;;;;;19.95;12.43;;;10.70;99.90;;;;;;4939196;29;20245;-68
2022/04/15 12:34:42;;;;;;;22.08;13.77;;;10.70;99.90;;;;;;4937510;28;20222;-68
2022/04/15 12:37:37;;;;;;;19.15;11.50;;;10.80;99.90;;;;;;4936559;28;20261;-69
2022/04/15 12:40:06;;;;;;;18.70;12.00;;;10.70;99.90;;;;;;4943118;28;20280;-68
2022/04/15 12:42:34;;;;;;;23.70;13.50;;;10.60;99.90;;;;;;4943924;28;20394;-68
2022/04/15 12:45:03;;;;;;;17.52;11.20;;;10.80;99.90;;;;;;4940759;28;20312;-68
2022/04/15 12:47:30;;;;;;;13.98;9.90;;;10.70;99.90;;;;;;4947840;28;20264;-68
2022/04/15 12:50:19;;;;;;;14.55;11.30;;;10.70;99.90;;;;;;4950266;28;20948;-68
2022/04/15 12:52:48;;;;;;;18.80;12.25;;;10.70;99.90;;;;;;4946104;28;20213;-67
2022/04/15 12:55:24;;;;;;;15.30;11.55;;;10.60;99.90;;;;;;4943044;28;20568;-67
2022/04/15 12:57:51;;;;;;;18.33;11.40;;;10.60;99.90;;;;;;4943305;28;20221;-69
2022/04/15 13:00:18;;;;;;;16.02;11.20;;;10.50;99.90;;;;;;4942037;28;20244;-67
2022/04/15 13:02:45;;;;;;;13.20;9.85;;;10.60;99.90;;;;;;4952593;28;20279;-68
2022/04/15 13:05:13;;;;;;;11.57;9.02;;;10.70;99.90;;;;;;4948101;28;20206;-67
2022/04/15 13:07:40;;;;;;;13.48;9.38;;;10.60;99.90;;;;;;4938770;28;20293;-68
2022/04/15 13:10:10;;;;;;;15.57;8.77;;;10.70;99.90;;;;;;4935251;28;20243;-67
2022/04/15 13:12:37;;;;;;;13.43;10.63;;;10.60;99.90;;;;;;4944739;28;20209;-67
2022/04/15 13:15:04;;;;;;;11.07;8.93;;;10.60;99.90;;;;;;4946061;28;20232;-68
2022/04/15 13:17:31;;;;;;;12.05;8.65;;;10.70;99.90;;;;;;4948691;28;20233;-68
2022/04/15 13:19:58;;;;;;;9.65;8.15;;;10.70;99.90;;;;;;4945319;28;20273;-67
2022/04/15 13:22:25;;;;;;;8.40;7.50;;;10.60;99.90;;;;;;4953406;28;20213;-67
2022/04/15 13:24:52;;;;;;;12.65;9.10;;;10.60;99.90;;;;;;4943687;28;20244;-68
2022/04/15 13:27:20;;;;;;;10.45;8.52;;;10.60;99.90;;;;;;4944212;28;20695;-67
2022/04/15 13:29:47;;;;;;;12.63;8.68;;;10.70;99.90;;;;;;4958626;28;20235;-68
2022/04/15 13:32:14;;;;;;;9.23;8.23;;;10.70;99.90;;;;;;4941727;28;20241;-68
2022/04/15 13:34:41;;;;;;;9.35;8.45;;;10.80;99.90;;;;;;4952387;28;20215;-68
2022/04/15 13:37:08;;;;;;;10.45;6.80;;;10.70;99.90;;;;;;4959549;28;20237;-69
2022/04/15 13:39:36;;;;;;;7.25;6.55;;;10.60;99.90;;;;;;4972173;28;20666;-68
2022/04/15 13:42:03;;;;;;;8.52;7.32;;;10.50;99.90;;;;;;4937268;28;20197;-68
2022/04/15 13:44:32;;;;;;;9.32;6.82;;;10.60;99.90;;;;;;4934916;29;20194;-68
2022/04/15 13:46:58;;;;;;;11.95;8.77;;;10.70;99.90;;;;;;4939019;28;20329;-69
2022/04/15 13:49:25;;;;;;;10.82;8.10;;;10.70;99.90;;;;;;4945438;29;20321;-69
2022/04/15 13:51:52;;;;;;;9.60;7.65;;;10.60;99.90;;;;;;4942211;28;20320;-68
2022/04/15 13:57:03;;;;;;;7.38;6.65;;;10.70;99.90;;;;;;4949465;28;20231;-67
2022/04/15 13:59:32;;;;;;;8.05;7.30;;;10.90;99.90;;;;;;4960563;28;20268;-68
2022/04/15 14:01:59;;;;;;;7.43;6.60;;;10.90;99.90;;;;;;4934333;28;20248;-68
2022/04/15 14:04:26;;;;;;;9.13;6.70;;;10.90;99.90;;;;;;4952330;28;20253;-68
2022/04/15 14:06:53;;;;;;;7.78;6.95;;;10.90;99.90;;;;;;4964856;28;20221;-69
2022/04/15 14:09:23;;;;;;;7.57;6.70;;;10.90;99.90;;;;;;4951881;28;21494;-69
2022/04/15 14:11:50;;;;;;;9.20;6.70;;;10.90;99.90;;;;;;4961125;28;20225;-68
2022/04/15 14:14:17;;;;;;;11.73;6.85;;;10.80;99.90;;;;;;4952412;28;20201;-68
2022/04/15 14:16:46;;;;;;;7.50;6.40;;;10.80;99.90;;;;;;4960574;28;20224;-68
2022/04/15 14:19:14;;;;;;;6.65;6.05;;;10.70;99.90;;;;;;4934620;29;20617;-68
2022/04/15 14:21:41;;;;;;;7.70;6.68;;;10.60;99.90;;;;;;4956630;28;20200;-67
2022/04/15 14:24:08;;;;;;;9.60;6.55;;;10.60;99.90;;;;;;4950579;28;20213;-68
2022/04/15 14:26:35;;;;;;;6.00;5.28;;;10.60;99.90;;;;;;4961045;28;20256;-67
2022/04/15 14:29:03;;;;;;;6.35;5.75;;;10.60;99.90;;;;;;4953173;28;20208;-67
2022/04/15 14:31:30;;;;;;;7.35;5.70;;;10.60;99.90;;;;;;4963148;28;20228;-68
2022/04/15 14:33:58;;;;;;;6.97;6.30;;;10.50;99.90;;;;;;4953393;28;20220;-69
2022/04/15 14:36:27;;;;;;;6.75;6.20;;;10.40;99.90;;;;;;4963988;28;20205;-69
2022/04/15 14:38:54;;;;;;;8.25;6.22;;;10.50;99.90;;;;;;4954296;28;20255;-69
2022/04/15 14:41:22;;;;;;;6.40;5.65;;;10.50;99.90;;;;;;4959974;28;20658;-70
2022/04/15 14:43:49;;;;;;;6.25;5.72;;;10.50;99.90;;;;;;4963371;28;20272;-68
2022/04/15 14:46:16;;;;;;;7.97;7.13;;;10.50;99.90;;;;;;4957785;28;20209;-69
2022/04/15 14:48:46;;;;;;;6.75;5.75;;;10.50;99.90;;;;;;4948635;28;20670;-69
2022/04/15 14:51:15;;;;;;;7.18;6.45;;;10.50;99.90;;;;;;4944125;28;20219;-67
2022/04/15 14:53:42;;;;;;;8.10;7.40;;;10.50;99.90;;;;;;4939902;29;20228;-69
2022/04/15 14:56:09;;;;;;;7.97;7.30;;;10.50;99.90;;;;;;4934747;28;20209;-69
2022/04/15 14:58:35;;;;;;;6.95;6.25;;;10.30;99.90;;;;;;4970772;28;20282;-68
2022/04/15 15:01:02;;;;;;;7.88;6.78;;;10.20;99.90;;;;;;4959233;28;20198;-68
2022/04/15 15:03:29;;;;;;;7.80;5.90;;;10.20;99.90;;;;;;4954169;28;20304;-69
2022/04/15 15:05:56;;;;;;;7.38;6.22;;;10.20;99.90;;;;;;4949636;28;20210;-68
2022/04/15 15:08:24;;;;;;;6.68;6.18;;;10.10;99.90;;;;;;4955303;28;20224;-69
2022/04/15 15:10:51;;;;;;;6.93;6.22;;;10.20;99.90;;;;;;4945950;28;20289;-69
2022/04/15 15:13:18;;;;;;;7.03;6.57;;;10.20;99.90;;;;;;4935569;28;20578;-68
2022/04/15 15:15:45;;;;;;;8.23;7.38;;;10.30;99.90;;;;;;4942479;28;20676;-70
2022/04/15 15:18:11;;;;;;;6.78;6.15;;;10.30;99.90;;;;;;4940723;29;20302;-69
2022/04/15 15:20:38;;;;;;;5.63;5.22;;;10.40;99.90;;;;;;4942017;28;20210;-68
2022/04/15 15:23:05;;;;;;;7.15;6.45;;;10.40;99.90;;;;;;4933391;29;20309;-68
2022/04/15 15:31:13;;;;;;;10.75;8.90;;;10.40;99.90;;;;;;4865965;29;20383;-69
2022/04/15 15:33:41;;;;;;;10.88;7.93;;;10.40;99.90;;;;;;4935273;28;20252;-68
2022/04/15 15:36:11;;;;;;;12.48;9.25;;;10.30;99.90;;;;;;4933110;29;20364;-68
2022/04/15 15:38:38;;;;;;;12.05;8.93;;;10.10;99.90;;;;;;4948663;28;20220;-68
2022/04/15 15:41:06;;;;;;;10.63;9.48;;;10.00;99.90;;;;;;4947289;28;20209;-68
2022/04/15 15:43:33;;;;;;;12.88;8.10;;;9.90;99.90;;;;;;4943804;29;20252;-66
2022/04/15 15:46:00;;;;;;;10.90;8.40;;;10.00;99.90;;;;;;4958032;28;20263;-69
2022/04/15 15:48:26;;;;;;;12.68;8.35;;;9.90;99.90;;;;;;4936991;28;20672;-68
2022/04/15 15:50:53;;;;;;;10.98;8.70;;;10.00;99.90;;;;;;4932249;28;20201;-68
2022/04/15 15:53:20;;;;;;;9.35;8.10;;;9.90;99.90;;;;;;4940601;28;20257;-68
2022/04/15 15:55:46;;;;;;;8.45;7.60;;;9.90;99.90;;;;;;4949269;28;20213;-69
2022/04/15 15:58:16;;;;;;;11.52;8.88;;;9.90;99.90;;;;;;4960449;28;20260;-69
2022/04/15 16:00:42;;;;;;;12.20;8.95;;;9.90;99.90;;;;;;4948231;28;20209;-68
2022/04/15 16:03:11;;;;;;;12.00;9.65;;;9.90;99.90;;;;;;4936918;29;20202;-67
2022/04/15 16:05:38;;;;;;;11.75;9.35;;;9.90;99.90;;;;;;4937564;28;20269;-69
2022/04/15 16:08:05;;;;;;;13.73;9.07;;;9.90;99.90;;;;;;4941333;28;20317;-68
2022/04/15 16:10:32;;;;;;;16.23;10.30;;;10.00;99.90;;;;;;4935757;29;20209;-69
2022/04/15 16:12:59;;;;;;;15.32;10.80;;;10.00;99.90;;;;;;4949748;28;20231;-68
2022/04/15 16:15:27;;;;;;;18.85;11.68;;;10.10;99.90;;;;;;4970507;28;20204;-69
2022/04/15 16:17:54;;;;;;;11.40;10.13;;;10.00;99.90;;;;;;4942651;28;20266;-68
2022/04/15 16:20:21;;;;;;;16.10;10.30;;;9.90;99.90;;;;;;4946600;28;20205;-69
2022/04/15 16:22:47;;;;;;;15.23;10.43;;;9.90;99.90;;;;;;4937598;28;20218;-67
2022/04/15 16:25:14;;;;;;;13.43;9.82;;;9.90;99.90;;;;;;4940439;28;20245;-69
2022/04/15 16:27:41;;;;;;;14.45;10.95;;;9.90;99.90;;;;;;4948381;29;20288;-69
2022/04/15 16:30:09;;;;;;;14.90;10.80;;;9.80;99.90;;;;;;4952529;28;20668;-70
2022/04/15 16:32:37;;;;;;;16.35;10.05;;;9.80;99.90;;;;;;4941177;28;20224;-69
2022/04/15 16:35:05;;;;;;;14.75;10.55;;;9.80;99.90;;;;;;4958992;28;20213;-68
2022/04/15 16:37:32;;;;;;;15.40;10.77;;;9.80;99.90;;;;;;4945860;28;20581;-69
2022/04/15 16:39:59;;;;;;;17.65;10.40;;;9.70;99.90;;;;;;4942381;28;20296;-69
2022/04/15 16:42:25;;;;;;;14.85;10.98;;;9.70;99.90;;;;;;4966702;28;20213;-68
2022/04/15 16:44:52;;;;;;;12.05;10.35;;;9.70;99.90;;;;;;4946908;28;20213;-69
2022/04/15 16:47:20;;;;;;;15.73;10.85;;;9.70;99.90;;;;;;4952561;28;20324;-69
2022/04/15 16:49:48;;;;;;;15.57;11.32;;;9.60;99.90;;;;;;4938260;28;20205;-69
2022/04/15 16:52:15;;;;;;;16.48;11.57;;;9.60;99.90;;;;;;4954276;29;20217;-69
2022/04/15 17:00:10;;;;;;;17.98;12.13;;;9.70;99.90;;;;;;4934010;29;20228;-69
2022/04/15 17:02:37;;;;;;;16.17;11.02;;;9.60;99.90;;;;;;4957614;28;20333;-69